Time;durP1;ratioP1;P1;durP2;ratioP2;P2;SDS_P1;SDS_P2;PMS_P1;PMS_P2;Temp;Humidity;BMP_temperature;BMP_pressure;BME280_temperature;BME280_humidity;BME280_pressure;Samples;Min_cycle;Max_cycle;Signal;HPM_P1;HPM_P2
2022/04/05 00:00:53;;;;;;;2.07;0.97;;;17.10;60.40;;;;;;5225747;28;20200;-61
2022/04/05 00:03:45;;;;;;;0.97;0.60;;;17.10;60.40;;;;;;5206439;28;20198;-60
2022/04/05 00:06:37;;;;;;;1.00;0.60;;;17.10;60.40;;;;;;5206613;28;20224;-61
2022/04/05 00:09:29;;;;;;;2.57;0.90;;;17.20;60.40;;;;;;5208208;28;20194;-62
2022/04/05 00:12:23;;;;;;;2.23;0.93;;;17.20;60.50;;;;;;5206702;28;20190;-62
2022/04/05 00:15:16;;;;;;;2.17;0.67;;;17.10;60.40;;;;;;5207317;28;20573;-61
2022/04/05 00:18:08;;;;;;;1.37;0.70;;;17.10;60.40;;;;;;5206949;28;20222;-62
2022/04/05 00:21:00;;;;;;;1.37;0.67;;;17.10;60.40;;;;;;5215814;28;20200;-61
2022/04/05 00:23:52;;;;;;;1.90;0.70;;;17.20;60.40;;;;;;5227547;28;20568;-60
2022/04/05 00:26:44;;;;;;;0.83;0.60;;;17.10;60.40;;;;;;5226769;28;20225;-61
2022/04/05 00:29:38;;;;;;;1.60;0.70;;;17.10;60.40;;;;;;5225299;28;20193;-61
2022/04/05 00:32:30;;;;;;;1.57;0.60;;;17.10;60.40;;;;;;5225611;28;20198;-60
2022/04/05 00:35:23;;;;;;;2.43;0.97;;;17.10;60.40;;;;;;5226426;28;20687;-61
2022/04/05 00:38:15;;;;;;;2.17;0.73;;;17.10;60.40;;;;;;5227350;28;20223;-61
2022/04/05 00:41:07;;;;;;;1.40;0.77;;;17.10;60.40;;;;;;5226336;28;20193;-61
2022/04/05 00:44:00;;;;;;;1.80;0.60;;;17.10;60.50;;;;;;5226525;28;20193;-62
2022/04/05 00:46:54;;;;;;;1.20;0.63;;;17.10;60.40;;;;;;5226276;28;20231;-62
2022/04/05 00:49:48;;;;;;;1.67;0.90;;;17.10;60.40;;;;;;5226977;28;20209;-62
2022/04/05 00:52:40;;;;;;;0.93;0.60;;;17.10;60.40;;;;;;5226024;28;20197;-61
2022/04/05 00:55:33;;;;;;;1.47;0.70;;;17.10;60.40;;;;;;5206543;28;20197;-59
2022/04/05 00:58:27;;;;;;;2.07;0.70;;;17.10;60.40;;;;;;5206167;28;20201;-61
2022/04/05 01:01:21;;;;;;;1.23;0.60;;;17.10;60.40;;;;;;5222132;28;20216;-61
2022/04/05 01:04:16;;;;;;;2.07;0.60;;;17.10;60.40;;;;;;5226616;28;20204;-62
2022/04/05 01:07:11;;;;;;;1.30;0.60;;;17.10;60.40;;;;;;5209775;28;20249;-61
2022/04/05 01:10:07;;;;;;;1.77;0.70;;;17.10;60.40;;;;;;5217232;28;20201;-61
2022/04/05 01:12:59;;;;;;;0.97;0.60;;;17.10;60.40;;;;;;5225491;28;20636;-61
2022/04/05 01:15:51;;;;;;;1.50;0.60;;;17.10;60.40;;;;;;5225984;28;20193;-61
2022/04/05 01:18:43;;;;;;;1.70;0.80;;;17.10;60.40;;;;;;5224827;28;20197;-61
2022/04/05 01:21:38;;;;;;;1.27;0.60;;;17.10;60.40;;;;;;5224970;28;20284;-62
2022/04/05 01:24:32;;;;;;;1.40;0.70;;;17.10;60.40;;;;;;5211874;28;20596;-61
2022/04/05 01:27:27;;;;;;;2.40;0.90;;;17.10;60.40;;;;;;5241860;28;20212;-61
2022/04/05 01:30:19;;;;;;;1.40;0.60;;;17.20;60.40;;;;;;5224494;28;20553;-62
2022/04/05 01:33:11;;;;;;;1.50;0.53;;;17.10;60.40;;;;;;5224801;28;20193;-61
2022/04/05 01:36:04;;;;;;;3.33;0.40;;;17.10;60.40;;;;;;5224426;28;20189;-61
2022/04/05 01:38:56;;;;;;;1.10;0.50;;;17.10;60.40;;;;;;5226025;28;20576;-61
2022/04/05 01:41:52;;;;;;;0.93;0.60;;;17.10;60.40;;;;;;5224841;28;20200;-61
2022/04/05 01:44:45;;;;;;;1.50;0.73;;;17.10;60.40;;;;;;5224794;28;20201;-60
2022/04/05 01:47:38;;;;;;;1.47;0.50;;;17.10;60.40;;;;;;5219326;28;20303;-61
2022/04/05 01:50:32;;;;;;;2.53;0.70;;;17.10;60.30;;;;;;5211723;28;20193;-61
2022/04/05 01:53:24;;;;;;;1.03;0.60;;;17.10;60.40;;;;;;5225620;28;20734;-62
2022/04/05 01:56:16;;;;;;;2.40;0.60;;;17.10;60.40;;;;;;5225248;28;20584;-59
2022/04/05 01:59:10;;;;;;;1.10;0.50;;;17.10;60.40;;;;;;5226171;28;20383;-59
2022/04/05 02:02:04;;;;;;;1.20;0.60;;;17.10;60.40;;;;;;5243461;28;20200;-61
2022/04/05 02:04:56;;;;;;;1.20;0.63;;;17.10;60.40;;;;;;5246305;28;20196;-60
2022/04/05 02:07:48;;;;;;;1.20;0.50;;;17.10;60.40;;;;;;5245849;28;20220;-61
2022/04/05 02:10:41;;;;;;;1.33;0.40;;;17.10;60.40;;;;;;5245840;28;20193;-61
2022/04/05 02:13:33;;;;;;;1.07;0.47;;;17.10;60.40;;;;;;5245613;28;20204;-61
2022/04/05 02:16:26;;;;;;;0.53;0.40;;;17.10;60.40;;;;;;5245516;28;20588;-61
2022/04/05 02:19:18;;;;;;;1.90;0.63;;;17.10;60.40;;;;;;5228114;28;20212;-61
2022/04/05 02:22:10;;;;;;;0.97;0.60;;;17.10;60.40;;;;;;5216889;28;20200;-61
2022/04/05 02:25:03;;;;;;;1.40;0.70;;;17.10;60.40;;;;;;5210748;28;20193;-61
2022/04/05 02:27:55;;;;;;;2.40;0.90;;;17.10;60.40;;;;;;5208471;28;20210;-61
2022/04/05 02:30:47;;;;;;;1.10;0.60;;;17.10;60.40;;;;;;5207953;28;20201;-61
2022/04/05 02:33:41;;;;;;;1.57;0.63;;;17.10;60.40;;;;;;5209049;28;20201;-61
2022/04/05 02:36:33;;;;;;;1.80;0.57;;;17.10;60.40;;;;;;5209181;28;20214;-62
2022/04/05 02:39:25;;;;;;;1.07;0.53;;;17.10;61.00;;;;;;5209159;28;20190;-62
2022/04/05 02:42:17;;;;;;;0.80;0.40;;;17.10;60.40;;;;;;5208576;28;20198;-62
2022/04/05 02:45:10;;;;;;;1.57;0.50;;;17.10;60.40;;;;;;5208799;28;20263;-61
2022/04/05 02:48:03;;;;;;;0.97;0.40;;;17.10;60.40;;;;;;5208435;28;20838;-61
2022/04/05 02:50:56;;;;;;;2.47;0.50;;;17.10;60.40;;;;;;5218547;28;20223;-60
2022/04/05 02:53:49;;;;;;;2.07;0.60;;;17.10;60.40;;;;;;5228645;28;20695;-61
2022/04/05 02:56:41;;;;;;;0.87;0.43;;;17.10;60.40;;;;;;5229036;28;20216;-61
2022/04/05 02:59:33;;;;;;;0.90;0.57;;;17.10;60.40;;;;;;5222124;28;20273;-61
2022/04/05 03:02:25;;;;;;;2.07;0.80;;;17.10;60.40;;;;;;5217963;28;20726;-59
2022/04/05 03:05:21;;;;;;;2.07;0.63;;;17.10;60.30;;;;;;5207646;28;20583;-59
2022/04/05 03:08:14;;;;;;;1.60;0.50;;;17.10;60.30;;;;;;5207856;28;20245;-62
2022/04/05 03:11:07;;;;;;;2.37;0.63;;;17.10;60.30;;;;;;5207485;28;20194;-61
2022/04/05 03:13:59;;;;;;;1.90;0.67;;;17.10;60.30;;;;;;5207601;28;20204;-61
2022/04/05 03:16:51;;;;;;;0.97;0.40;;;17.10;60.30;;;;;;5207692;28;20293;-61
2022/04/05 03:19:43;;;;;;;0.57;0.30;;;17.10;60.30;;;;;;5207663;28;20220;-61
2022/04/05 03:22:35;;;;;;;1.43;0.70;;;17.10;60.40;;;;;;5207959;28;20197;-61
2022/04/05 03:25:29;;;;;;;1.03;0.47;;;17.10;60.40;;;;;;5220443;28;20204;-61
2022/04/05 03:28:21;;;;;;;2.33;0.60;;;17.10;60.40;;;;;;5234408;28;20706;-60
2022/04/05 03:31:14;;;;;;;1.87;0.67;;;17.10;60.30;;;;;;5224418;28;20200;-61
2022/04/05 03:34:06;;;;;;;1.00;0.43;;;17.10;60.30;;;;;;5228055;28;20571;-61
2022/04/05 03:36:58;;;;;;;1.93;0.70;;;17.10;60.30;;;;;;5227818;28;20209;-60
2022/04/05 03:39:50;;;;;;;1.57;0.60;;;17.10;60.30;;;;;;5223100;28;20201;-60
2022/04/05 03:42:43;;;;;;;0.93;0.50;;;17.10;60.30;;;;;;5206188;28;20208;-61
2022/04/05 03:45:35;;;;;;;1.17;0.60;;;17.10;60.30;;;;;;5207011;28;20201;-61
2022/04/05 03:48:27;;;;;;;1.33;0.40;;;17.10;60.30;;;;;;5206933;28;20213;-61
2022/04/05 03:51:19;;;;;;;0.50;0.37;;;17.10;60.30;;;;;;5218950;28;20201;-61
2022/04/05 03:54:12;;;;;;;0.83;0.40;;;17.10;60.30;;;;;;5227552;28;20697;-61
2022/04/05 03:57:04;;;;;;;1.77;0.67;;;17.10;60.20;;;;;;5227334;28;20213;-61
2022/04/05 03:59:58;;;;;;;1.07;0.57;;;17.10;60.20;;;;;;5214727;28;20608;-61
2022/04/05 04:02:50;;;;;;;2.37;0.70;;;17.10;60.30;;;;;;5208275;28;20209;-61
2022/04/05 04:05:42;;;;;;;1.20;0.40;;;17.10;60.20;;;;;;5206953;28;20205;-61
2022/04/05 04:08:35;;;;;;;0.80;0.50;;;17.10;60.20;;;;;;5207374;28;20198;-62
2022/04/05 04:11:27;;;;;;;2.60;0.60;;;17.20;60.30;;;;;;5206529;28;20198;-61
2022/04/05 04:14:19;;;;;;;0.37;0.37;;;17.10;60.30;;;;;;5207508;28;20565;-61
2022/04/05 04:17:13;;;;;;;0.87;0.47;;;17.10;60.30;;;;;;5207080;28;20217;-60
2022/04/05 04:20:06;;;;;;;0.93;0.40;;;17.10;60.30;;;;;;5207211;28;20725;-60
2022/04/05 04:22:58;;;;;;;0.90;0.50;;;17.10;60.30;;;;;;5206317;28;20198;-62
2022/04/05 04:25:50;;;;;;;0.40;0.20;;;17.20;60.30;;;;;;5209729;28;20676;-61
2022/04/05 04:28:42;;;;;;;1.50;0.60;;;17.20;60.30;;;;;;5223011;28;20322;-62
2022/04/05 04:31:35;;;;;;;1.33;0.53;;;17.20;60.30;;;;;;5206822;28;20201;-61
2022/04/05 04:34:28;;;;;;;0.97;0.40;;;17.20;60.20;;;;;;5205765;28;20259;-61
2022/04/05 04:37:20;;;;;;;1.60;0.40;;;17.20;60.30;;;;;;5205583;28;20210;-61
2022/04/05 04:40:13;;;;;;;2.93;0.40;;;17.20;60.20;;;;;;5205620;28;20565;-59
2022/04/05 04:43:06;;;;;;;3.33;0.43;;;17.20;60.20;;;;;;5205827;28;20217;-61
2022/04/05 04:45:58;;;;;;;1.43;0.50;;;17.20;60.30;;;;;;5226398;28;20201;-61
2022/04/05 04:48:50;;;;;;;0.97;0.40;;;17.20;60.20;;;;;;5225262;28;20274;-61
2022/04/05 04:51:44;;;;;;;0.87;0.30;;;17.20;60.30;;;;;;5225903;28;20204;-62
2022/04/05 04:54:36;;;;;;;2.13;0.70;;;17.20;60.30;;;;;;5226376;28;20199;-61
2022/04/05 04:57:28;;;;;;;1.03;0.50;;;17.20;60.30;;;;;;5225716;28;20213;-62
2022/04/05 05:00:20;;;;;;;1.35;0.55;;;17.20;60.30;;;;;;5223605;28;20423;-63
2022/04/05 05:03:12;;;;;;;1.70;0.50;;;17.30;60.20;;;;;;5232970;28;20572;-62
2022/04/05 05:06:05;;;;;;;1.17;0.30;;;17.30;60.10;;;;;;5205728;28;20291;-62
2022/04/05 05:08:59;;;;;;;1.80;0.60;;;17.30;60.10;;;;;;5206090;28;20189;-62
2022/04/05 05:11:51;;;;;;;0.50;0.30;;;17.30;60.10;;;;;;5205242;28;20673;-62
2022/04/05 05:14:43;;;;;;;1.57;0.37;;;17.30;60.10;;;;;;5205357;28;20212;-62
2022/04/05 05:17:35;;;;;;;0.80;0.40;;;17.30;60.20;;;;;;5205228;28;20216;-63
2022/04/05 05:20:27;;;;;;;1.48;0.60;;;17.30;60.20;;;;;;5222456;28;20427;-63
2022/04/05 05:23:19;;;;;;;1.00;0.50;;;17.30;60.00;;;;;;5227811;28;20652;-62
2022/04/05 05:26:13;;;;;;;0.70;0.40;;;17.40;60.00;;;;;;5225007;28;20201;-63
2022/04/05 05:29:05;;;;;;;1.47;0.50;;;17.30;60.10;;;;;;5223766;28;20185;-63
2022/04/05 05:31:57;;;;;;;2.90;0.80;;;17.40;60.20;;;;;;5220468;28;20550;-61
2022/04/05 05:34:49;;;;;;;1.30;0.50;;;17.30;60.20;;;;;;5225806;28;20197;-62
2022/04/05 05:37:42;;;;;;;1.40;0.60;;;17.30;60.30;;;;;;5224529;28;20217;-63
2022/04/05 05:40:34;;;;;;;1.07;0.60;;;17.30;60.30;;;;;;5225816;28;20228;-63
2022/04/05 05:43:28;;;;;;;0.70;0.40;;;17.30;60.30;;;;;;5225328;28;20202;-62
2022/04/05 05:49:00;;;;;;;0.90;0.53;;;17.30;60.40;;;;;;5228459;22;20229;-64
2022/04/05 05:51:52;;;;;;;1.17;0.33;;;17.30;60.40;;;;;;5201864;28;20681;-65
2022/04/05 05:54:44;;;;;;;1.07;0.40;;;17.30;60.50;;;;;;5203551;28;20202;-65
2022/04/05 05:57:36;;;;;;;1.23;0.50;;;17.30;60.50;;;;;;5204057;28;20217;-65
2022/04/05 06:00:30;;;;;;;0.73;0.47;;;17.30;60.50;;;;;;5203237;28;20194;-65
2022/04/05 06:03:22;;;;;;;0.80;0.40;;;17.30;60.50;;;;;;5203568;28;20200;-65
2022/04/05 06:06:14;;;;;;;0.80;0.37;;;17.30;60.50;;;;;;5203886;28;20194;-65
2022/04/05 06:09:07;;;;;;;0.70;0.50;;;17.30;60.50;;;;;;5195856;28;20229;-65
2022/04/05 06:11:59;;;;;;;2.03;0.70;;;17.30;60.50;;;;;;5203141;28;20669;-64
2022/04/05 06:14:51;;;;;;;1.40;0.50;;;17.30;60.50;;;;;;5204281;28;20673;-65
2022/04/05 06:17:46;;;;;;;2.77;0.80;;;17.30;60.50;;;;;;5203101;28;20296;-65
2022/04/05 06:20:38;;;;;;;1.93;0.70;;;17.30;60.50;;;;;;5204377;28;20194;-65
2022/04/05 06:23:30;;;;;;;0.80;0.40;;;17.30;60.50;;;;;;5183260;28;20252;-65
2022/04/05 06:26:22;;;;;;;1.17;0.60;;;17.30;60.50;;;;;;5186939;28;20194;-65
2022/04/05 06:29:14;;;;;;;1.60;0.50;;;17.30;60.50;;;;;;5196706;28;20331;-64
2022/04/05 06:32:07;;;;;;;1.00;0.50;;;17.30;60.60;;;;;;5187202;28;20197;-64
2022/04/05 06:35:01;;;;;;;1.57;0.60;;;17.30;60.60;;;;;;5202873;28;20201;-65
2022/04/05 06:37:53;;;;;;;2.43;0.60;;;17.30;60.60;;;;;;5200584;28;20606;-66
2022/04/05 06:40:46;;;;;;;1.90;0.57;;;17.30;60.50;;;;;;5199345;28;20208;-67
2022/04/05 06:43:38;;;;;;;1.90;0.77;;;17.30;60.60;;;;;;5199551;28;20718;-66
2022/04/05 06:46:30;;;;;;;2.93;0.50;;;17.30;60.60;;;;;;5200610;28;20688;-66
2022/04/05 06:49:23;;;;;;;2.40;0.70;;;17.30;60.50;;;;;;5200848;28;20559;-66
2022/04/05 06:52:16;;;;;;;1.37;0.53;;;17.30;60.50;;;;;;5180739;28;20191;-67
2022/04/05 06:55:10;;;;;;;0.77;0.40;;;17.30;60.50;;;;;;5187299;28;20422;-67
2022/04/05 06:58:02;;;;;;;0.80;0.30;;;17.30;60.50;;;;;;5201279;28;20225;-67
2022/04/05 07:00:54;;;;;;;1.80;0.73;;;17.40;60.60;;;;;;5200575;28;20208;-66
2022/04/05 07:03:46;;;;;;;1.40;0.60;;;17.30;60.50;;;;;;5200969;28;20194;-66
2022/04/05 07:06:39;;;;;;;2.70;0.77;;;17.40;60.60;;;;;;5199909;28;20584;-67
2022/04/05 07:09:32;;;;;;;0.70;0.33;;;17.40;60.60;;;;;;5200618;28;20205;-67
2022/04/05 07:12:24;;;;;;;0.67;0.30;;;17.40;60.60;;;;;;5204057;28;20206;-66
2022/04/05 07:15:17;;;;;;;1.77;0.80;;;17.40;60.60;;;;;;5203494;28;20201;-66
2022/04/05 07:18:09;;;;;;;1.10;0.50;;;17.40;60.60;;;;;;5204270;28;20224;-66
2022/04/05 07:21:02;;;;;;;1.30;0.53;;;17.40;60.70;;;;;;5202789;28;20273;-66
2022/04/05 07:23:55;;;;;;;2.30;0.80;;;17.40;60.70;;;;;;5203166;28;20280;-67
2022/04/05 07:26:49;;;;;;;1.27;0.50;;;17.40;60.70;;;;;;5197684;28;20708;-66
2022/04/05 07:29:41;;;;;;;1.00;0.63;;;17.40;60.70;;;;;;5183962;28;20200;-66
2022/04/05 07:32:37;;;;;;;1.07;0.50;;;17.40;60.70;;;;;;5195494;28;20206;-66
2022/04/05 07:35:29;;;;;;;1.17;0.50;;;17.40;61.30;;;;;;5204955;28;20209;-66
2022/04/05 07:38:21;;;;;;;1.33;0.60;;;17.40;60.70;;;;;;5203366;28;20217;-67
2022/04/05 07:41:14;;;;;;;1.03;0.43;;;17.40;60.70;;;;;;5202424;28;20372;-67
2022/04/05 07:44:07;;;;;;;2.63;0.50;;;17.40;60.70;;;;;;5201269;28;20194;-66
2022/04/05 07:47:00;;;;;;;1.47;0.40;;;17.40;60.70;;;;;;5203324;28;20221;-65
2022/04/05 07:49:52;;;;;;;1.30;0.40;;;17.40;60.70;;;;;;5210440;28;20681;-65
2022/04/05 07:52:44;;;;;;;0.97;0.57;;;17.40;60.70;;;;;;5203470;28;20198;-65
2022/04/05 07:55:37;;;;;;;1.63;0.50;;;17.40;60.70;;;;;;5203454;28;20202;-64
2022/04/05 07:58:29;;;;;;;0.90;0.50;;;17.40;60.70;;;;;;5203611;28;20217;-64
2022/04/05 08:01:24;;;;;;;0.87;0.40;;;17.40;60.70;;;;;;5203876;28;20206;-64
2022/04/05 08:04:16;;;;;;;0.80;0.40;;;17.40;60.60;;;;;;5204763;28;20230;-65
2022/04/05 08:07:08;;;;;;;0.73;0.30;;;17.40;60.60;;;;;;5202892;28;20708;-65
2022/04/05 08:10:00;;;;;;;2.13;0.53;;;17.40;60.60;;;;;;5202625;28;20205;-64
2022/04/05 08:12:52;;;;;;;1.40;0.50;;;17.40;60.60;;;;;;5202561;28;20198;-65
2022/04/05 08:15:44;;;;;;;2.50;0.60;;;17.40;60.60;;;;;;5201674;28;20201;-65
2022/04/05 08:18:38;;;;;;;0.57;0.40;;;17.40;60.50;;;;;;5202183;28;20214;-65
2022/04/05 08:21:30;;;;;;;1.27;0.50;;;17.40;60.50;;;;;;5202269;28;20204;-65
2022/04/05 08:24:22;;;;;;;1.03;0.40;;;17.40;60.50;;;;;;5193475;28;20198;-65
2022/04/05 08:27:15;;;;;;;0.90;0.43;;;17.40;60.50;;;;;;5196759;28;20221;-65
2022/04/05 08:30:09;;;;;;;1.47;0.37;;;17.40;60.50;;;;;;5199452;28;20225;-65
2022/04/05 08:33:01;;;;;;;1.37;0.60;;;17.40;60.50;;;;;;5196181;28;20692;-64
2022/04/05 08:35:55;;;;;;;1.30;0.60;;;17.40;60.50;;;;;;5195261;28;20570;-65
2022/04/05 08:38:47;;;;;;;0.50;0.40;;;17.40;60.50;;;;;;5195767;28;20217;-65
2022/04/05 08:41:43;;;;;;;1.30;0.40;;;17.40;60.50;;;;;;5197206;28;20232;-65
2022/04/05 08:44:35;;;;;;;1.23;0.50;;;17.40;60.50;;;;;;5197422;28;20287;-65
2022/04/05 08:47:29;;;;;;;1.70;0.63;;;17.40;60.50;;;;;;5196257;28;20597;-64
2022/04/05 08:50:23;;;;;;;1.50;0.80;;;17.40;60.40;;;;;;5196429;28;20724;-64
2022/04/05 08:53:17;;;;;;;2.13;0.80;;;17.40;60.50;;;;;;5200238;28;20281;-65
2022/04/05 08:56:09;;;;;;;1.33;0.60;;;17.50;60.50;;;;;;5205882;28;20580;-65
2022/04/05 08:59:02;;;;;;;1.07;0.60;;;17.40;60.40;;;;;;5204702;28;20273;-64
2022/04/05 09:01:54;;;;;;;0.90;0.40;;;17.40;60.40;;;;;;5205717;28;20554;-64
2022/04/05 09:04:46;;;;;;;0.70;0.40;;;17.40;60.40;;;;;;5205469;28;20229;-62
2022/04/05 09:07:40;;;;;;;1.37;0.47;;;17.40;60.40;;;;;;5204934;28;20597;-63
2022/04/05 09:10:34;;;;;;;1.58;0.70;;;17.50;60.50;;;;;;5197883;28;20417;-65
2022/04/05 09:13:27;;;;;;;0.70;0.37;;;17.40;60.30;;;;;;5202363;28;20202;-65
2022/04/05 09:16:28;;;;;;;1.23;0.50;;;17.50;60.30;;;;;;5202513;28;20208;-64
2022/04/05 09:19:20;;;;;;;0.90;0.37;;;17.50;60.30;;;;;;5201758;28;20768;-64
2022/04/05 09:22:13;;;;;;;2.20;0.70;;;17.50;60.40;;;;;;5203650;28;20201;-64
2022/04/05 09:25:06;;;;;;;2.97;0.70;;;17.50;60.40;;;;;;5201292;28;20206;-65
2022/04/05 09:28:00;;;;;;;2.43;0.70;;;17.50;60.40;;;;;;5201709;28;20764;-65
2022/04/05 09:30:56;;;;;;;2.33;0.63;;;17.50;60.50;;;;;;5200051;28;20732;-65
2022/04/05 09:34:06;;;;;;;1.20;0.50;;;17.50;60.50;;;;;;5199809;28;20206;-65
2022/04/05 09:37:07;;;;;;;0.93;0.50;;;17.50;60.50;;;;;;5201543;28;20629;-65
2022/04/05 09:40:19;;;;;;;1.60;0.50;;;17.50;60.50;;;;;;5201844;28;20205;-65
2022/04/05 09:43:15;;;;;;;0.90;0.30;;;17.50;60.50;;;;;;5201610;28;20202;-65
2022/04/05 09:46:07;;;;;;;1.40;0.40;;;17.50;60.50;;;;;;5201574;28;20198;-65
2022/04/05 09:49:05;;;;;;;0.70;0.50;;;17.50;60.50;;;;;;5201355;28;20225;-65
2022/04/05 09:51:57;;;;;;;1.53;0.60;;;17.50;60.50;;;;;;5201888;28;20208;-65
2022/04/05 09:54:50;;;;;;;1.20;0.47;;;17.50;60.50;;;;;;5201309;28;20194;-65
2022/04/05 09:57:43;;;;;;;1.27;0.50;;;17.50;60.50;;;;;;5201351;28;20218;-65
2022/04/05 10:00:36;;;;;;;1.13;0.50;;;17.50;60.50;;;;;;5201231;28;20193;-65
2022/04/05 10:03:28;;;;;;;2.00;0.70;;;17.50;60.40;;;;;;5200829;28;20198;-65
2022/04/05 10:06:22;;;;;;;1.20;0.50;;;17.50;60.50;;;;;;5201490;28;20197;-65
2022/04/05 10:09:16;;;;;;;0.87;0.50;;;17.50;60.40;;;;;;5195694;28;20259;-65
2022/04/05 10:12:09;;;;;;;0.60;0.40;;;17.50;60.40;;;;;;5181270;28;20823;-65
2022/04/05 10:15:01;;;;;;;0.83;0.40;;;17.50;60.40;;;;;;5181381;28;20201;-64
2022/04/05 10:17:57;;;;;;;0.77;0.50;;;17.50;60.40;;;;;;5180940;28;20293;-64
2022/04/05 10:20:50;;;;;;;1.83;0.40;;;17.50;60.40;;;;;;5180914;28;20201;-65
2022/04/05 10:23:45;;;;;;;1.13;0.40;;;17.50;60.40;;;;;;5192284;28;20216;-65
2022/04/05 10:26:38;;;;;;;0.73;0.40;;;17.50;60.40;;;;;;5200739;28;20194;-64
2022/04/05 10:29:31;;;;;;;1.13;0.50;;;17.50;60.40;;;;;;5199492;28;20244;-65
2022/04/05 10:32:32;;;;;;;0.70;0.40;;;17.50;60.40;;;;;;5201080;28;20197;-65
2022/04/05 10:35:27;;;;;;;0.90;0.57;;;17.50;60.40;;;;;;5200499;28;20205;-65
2022/04/05 10:38:19;;;;;;;0.47;0.30;;;17.50;60.40;;;;;;5181763;28;20221;-64
2022/04/05 10:41:16;;;;;;;1.13;0.60;;;17.50;60.40;;;;;;5179837;28;20205;-65
2022/04/05 10:44:23;;;;;;;1.53;0.43;;;17.50;60.40;;;;;;5185749;28;20202;-65
2022/04/05 10:47:16;;;;;;;0.93;0.43;;;17.50;60.40;;;;;;5197617;28;20232;-64
2022/04/05 10:50:17;;;;;;;1.33;0.40;;;17.50;60.40;;;;;;5205051;28;20200;-64
2022/04/05 10:53:19;;;;;;;1.20;0.40;;;17.50;60.40;;;;;;5203548;28;20576;-64
2022/04/05 10:56:15;;;;;;;1.27;0.50;;;17.50;60.40;;;;;;5204807;28;20625;-65
2022/04/05 10:59:45;;;;;;;1.00;0.50;;;17.50;60.40;;;;;;5204049;28;20595;-64
2022/04/05 11:02:40;;;;;;;0.57;0.30;;;17.50;60.40;;;;;;5203989;28;20201;-65
2022/04/05 11:05:42;;;;;;;2.40;0.80;;;17.50;60.40;;;;;;5204041;28;20214;-65
2022/04/05 11:08:36;;;;;;;0.40;0.20;;;17.50;60.40;;;;;;5203649;28;20217;-65
2022/04/05 11:11:28;;;;;;;1.70;0.70;;;17.50;60.50;;;;;;5203524;28;20198;-65
2022/04/05 11:14:35;;;;;;;0.73;0.40;;;17.50;60.40;;;;;;5204002;28;20201;-65
2022/04/05 11:17:28;;;;;;;1.37;0.50;;;17.50;60.40;;;;;;5204618;28;20604;-65
2022/04/05 11:20:21;;;;;;;1.73;0.50;;;17.50;60.50;;;;;;5204226;28;20247;-65
2022/04/05 11:23:16;;;;;;;0.93;0.40;;;17.50;60.50;;;;;;5203525;28;20198;-65
2022/04/05 11:26:30;;;;;;;1.07;0.60;;;17.50;60.40;;;;;;5203364;28;20206;-64
2022/04/05 11:29:22;;;;;;;1.47;0.43;;;17.50;60.40;;;;;;5203571;28;20578;-64
2022/04/05 11:32:15;;;;;;;0.97;0.50;;;17.50;60.50;;;;;;5203310;28;20670;-64
2022/04/05 11:35:23;;;;;;;2.53;0.60;;;17.50;60.50;;;;;;5203995;28;20190;-64
2022/04/05 11:38:27;;;;;;;1.20;0.30;;;17.50;60.50;;;;;;5203524;28;20206;-64
2022/04/05 11:41:20;;;;;;;1.50;0.53;;;17.50;60.40;;;;;;5203466;28;20236;-65
2022/04/05 11:44:16;;;;;;;1.80;0.50;;;17.50;60.50;;;;;;5202887;28;20198;-65
2022/04/05 11:47:08;;;;;;;0.73;0.30;;;17.50;60.50;;;;;;5181706;28;20218;-65
2022/04/05 11:50:08;;;;;;;1.07;0.40;;;17.50;60.50;;;;;;5184966;28;20688;-65
2022/04/05 11:53:18;;;;;;;0.80;0.50;;;17.50;60.50;;;;;;5202551;28;20198;-65
2022/04/05 11:56:14;;;;;;;2.50;0.50;;;17.50;60.50;;;;;;5203052;28;20202;-65
2022/04/05 11:59:08;;;;;;;0.90;0.40;;;17.50;60.50;;;;;;5203917;28;20197;-64
2022/04/05 12:02:02;;;;;;;0.53;0.43;;;17.50;60.50;;;;;;5202967;28;20212;-65
2022/04/05 12:04:54;;;;;;;1.27;0.50;;;17.50;60.50;;;;;;5203732;28;20194;-65
2022/04/05 12:07:48;;;;;;;1.90;0.40;;;17.50;60.50;;;;;;5203282;28;20236;-65
2022/04/05 12:10:41;;;;;;;0.67;0.47;;;17.50;60.50;;;;;;5203394;28;20197;-65
2022/04/05 12:13:35;;;;;;;0.97;0.40;;;17.50;60.50;;;;;;5203642;28;20491;-65
2022/04/05 12:16:29;;;;;;;0.83;0.50;;;17.50;60.50;;;;;;5182517;28;20199;-65
2022/04/05 12:19:24;;;;;;;0.63;0.30;;;17.50;60.50;;;;;;5181948;28;20205;-65
2022/04/05 12:22:18;;;;;;;1.23;0.50;;;17.50;60.50;;;;;;5196998;28;20209;-65
2022/04/05 12:25:10;;;;;;;1.30;0.60;;;17.50;60.50;;;;;;5183593;28;20699;-65
2022/04/05 12:28:05;;;;;;;0.80;0.43;;;17.50;60.50;;;;;;5203933;23;20221;-65
2022/04/05 12:31:07;;;;;;;0.80;0.40;;;17.50;60.60;;;;;;5206641;28;20726;-65
2022/04/05 12:34:01;;;;;;;0.93;0.40;;;17.50;60.50;;;;;;5205998;28;20190;-65
2022/04/05 12:36:57;;;;;;;0.67;0.40;;;17.50;60.60;;;;;;5205963;28;20190;-65
2022/04/05 12:39:50;;;;;;;1.97;0.47;;;17.50;60.60;;;;;;5186125;28;20299;-65
2022/04/05 12:42:42;;;;;;;1.00;0.60;;;17.50;60.60;;;;;;5185951;28;20203;-65
2022/04/05 12:45:34;;;;;;;0.93;0.30;;;17.50;60.60;;;;;;5185661;28;20741;-65
2022/04/05 12:48:27;;;;;;;0.50;0.30;;;17.50;60.60;;;;;;5187620;28;20218;-65
2022/04/05 12:51:31;;;;;;;0.60;0.40;;;17.50;60.60;;;;;;5179241;28;20590;-65
2022/04/05 12:54:32;;;;;;;0.93;0.40;;;17.50;60.60;;;;;;5184858;28;20622;-65
2022/04/05 12:57:30;;;;;;;0.90;0.30;;;17.50;60.60;;;;;;5184604;28;20255;-65
2022/04/05 13:00:23;;;;;;;0.40;0.30;;;17.50;60.60;;;;;;5184300;28;20194;-66
2022/04/05 13:03:16;;;;;;;1.37;0.50;;;17.50;60.60;;;;;;5165184;28;20732;-65
2022/04/05 13:06:21;;;;;;;0.73;0.30;;;17.50;60.60;;;;;;5164874;28;20199;-65
2022/04/05 13:09:14;;;;;;;0.87;0.47;;;17.50;60.70;;;;;;5171847;28;20221;-65
2022/04/05 13:12:10;;;;;;;1.13;0.50;;;17.50;60.70;;;;;;5188229;28;20199;-65
2022/04/05 13:15:11;;;;;;;0.90;0.50;;;17.50;61.30;;;;;;5184141;28;20210;-65
2022/04/05 13:18:08;;;;;;;1.23;0.33;;;17.50;60.70;;;;;;5185017;28;20229;-63
2022/04/05 13:21:02;;;;;;;0.70;0.30;;;17.50;60.70;;;;;;5184718;28;20195;-65
2022/04/05 13:24:01;;;;;;;0.93;0.50;;;17.50;60.70;;;;;;5184635;28;20577;-65
2022/04/05 13:26:55;;;;;;;0.70;0.30;;;17.50;60.70;;;;;;5184188;28;20198;-66
2022/04/05 13:29:48;;;;;;;0.83;0.40;;;17.50;60.70;;;;;;5189810;28;20221;-65
2022/04/05 13:32:40;;;;;;;0.87;0.20;;;17.50;60.70;;;;;;5183884;28;20202;-63
2022/04/05 13:35:32;;;;;;;0.73;0.40;;;17.50;60.70;;;;;;5184682;28;20204;-65
2022/04/05 13:38:26;;;;;;;1.03;0.40;;;17.50;60.70;;;;;;5183328;28;20229;-65
2022/04/05 13:41:18;;;;;;;0.50;0.20;;;17.50;60.70;;;;;;5184833;28;20190;-65
2022/04/05 13:44:13;;;;;;;0.60;0.40;;;17.50;60.70;;;;;;5185055;28;20198;-65
2022/04/05 13:47:07;;;;;;;0.87;0.40;;;17.50;60.70;;;;;;5185899;28;20206;-64
2022/04/05 13:50:01;;;;;;;1.37;0.50;;;17.50;60.70;;;;;;5183766;28;20312;-65
2022/04/05 13:52:54;;;;;;;1.70;0.50;;;17.50;60.70;;;;;;5184609;28;20200;-65
2022/04/05 13:55:46;;;;;;;0.53;0.27;;;17.50;60.70;;;;;;5185043;28;20670;-65
2022/04/05 13:58:38;;;;;;;1.43;0.40;;;17.50;60.70;;;;;;5183632;28;20222;-65
2022/04/05 14:01:31;;;;;;;0.97;0.50;;;17.50;60.70;;;;;;5203878;28;20665;-65
2022/04/05 14:04:24;;;;;;;0.90;0.33;;;17.50;60.70;;;;;;5164270;28;20243;-63
2022/04/05 14:07:17;;;;;;;0.70;0.50;;;17.50;60.70;;;;;;5164283;28;20208;-65
2022/04/05 14:10:09;;;;;;;0.60;0.40;;;17.50;60.70;;;;;;5163831;28;20218;-65
2022/04/05 14:13:01;;;;;;;0.53;0.40;;;17.50;60.70;;;;;;5162741;28;20195;-65
2022/04/05 14:15:53;;;;;;;0.90;0.40;;;17.50;60.70;;;;;;5189460;28;20693;-65
2022/04/05 14:18:46;;;;;;;0.63;0.40;;;17.50;60.70;;;;;;5204719;28;20723;-65
2022/04/05 14:21:40;;;;;;;0.63;0.40;;;17.50;60.70;;;;;;5195182;28;20202;-65
2022/04/05 14:24:32;;;;;;;0.73;0.40;;;17.60;60.80;;;;;;5188506;28;20194;-65
2022/04/05 14:27:24;;;;;;;0.30;0.30;;;17.50;60.80;;;;;;5183953;28;20666;-65
2022/04/05 14:30:16;;;;;;;0.53;0.33;;;17.60;60.90;;;;;;5180142;28;20226;-63
2022/04/05 14:33:09;;;;;;;0.60;0.43;;;17.50;60.80;;;;;;5182280;28;20201;-63
2022/04/05 14:36:01;;;;;;;1.33;0.40;;;17.50;60.80;;;;;;5185022;28;20201;-63
2022/04/05 14:38:54;;;;;;;0.70;0.40;;;17.50;60.80;;;;;;5180981;28;20693;-65
2022/04/05 14:41:48;;;;;;;0.80;0.40;;;17.50;60.80;;;;;;5182934;28;20207;-66
2022/04/05 14:44:40;;;;;;;0.47;0.40;;;17.50;60.90;;;;;;5184029;28;20199;-65
2022/04/05 14:47:32;;;;;;;1.90;0.40;;;17.50;60.90;;;;;;5183596;28;20194;-65
2022/04/05 14:50:25;;;;;;;0.60;0.40;;;17.50;61.00;;;;;;5183391;28;20590;-65
2022/04/05 14:53:18;;;;;;;1.03;0.40;;;17.50;61.00;;;;;;5182989;28;20206;-65
2022/04/05 14:56:11;;;;;;;0.80;0.40;;;17.50;61.00;;;;;;5183034;28;20688;-66
2022/04/05 14:59:03;;;;;;;1.30;0.60;;;17.50;61.10;;;;;;5183517;28;20688;-63
2022/04/05 15:01:56;;;;;;;0.90;0.50;;;17.50;61.10;;;;;;5182580;28;20202;-66
2022/04/05 15:04:48;;;;;;;0.83;0.47;;;17.50;61.10;;;;;;5182905;28;20282;-66
2022/04/05 15:07:40;;;;;;;3.40;0.70;;;17.50;61.20;;;;;;5183302;28;20205;-65